Praha-libus, Czech Republic

12:46 AM CET on January 23, 2017 (GMT +0100)
Pod Haltýřem | | Change Station

Elev 859 ft 50.02 °N, 14.46 °E | Updated 6 minutes ago

Clear
Clear
16.2 °F
Feels Like 16 °F
N
0.6
Wind Variable Wind from North
Gusts 1.2 mph

Today
High -- | Low -- °F
--% Chance of Precip.
Yesterday
High -- | Low -- °F
Precip. -- in
Pressure 30.24 in
Visibility 5.6 miles
Clouds
Windchill 16 °F
Dew Point 13 °F
Humidity 86%
Rainfall Not available.
Snow Depth Not available.
7:47 AM 4:41 PM
Waning Crescent, 23% visible
METAR LKPR 222330Z 09006KT 9000 NSC M08/M10 Q1024 R24/25//95 R30/09//95 NOSIG
Pressure 30.24 in
Visibility 5.6 miles
Clouds
Windchill 16 °F
Dew Point 13 °F
Humidity 86%
Rainfall Not available.
Snow Depth Not available.
7:47 AM 4:41 PM
Waning Crescent, 23% visible
METAR LKPR 222330Z 09006KT 9000 NSC M08/M10 Q1024 R24/25//95 R30/09//95 NOSIG

Get Your Daily Forecast Email!

Thanks for signing up!

Be on the lookout for a verification email in your inbox.

You'll start receiving the daily forecast at 8 AM.

×

10-Day Weather Forecast

×

Almanac

Astronomy

Jan. 23, 2017 Rise Set
Actual Time
Civil Twilight
Nautical Twilight
Astronomical Twilight
Moon
Length of Visible Light
Length of Day
Tomorrow will be .
, % of the Moon is Illuminated

Today's Extremes

Country Highs Country Lows

Community

WunderPhotos

Upload Photos

1,962,540 photos uploaded!

WunderBlog® & News

Nearby

Air Quality

  Air Quality AQ Index Pollutant
Not available.

Snow Depth

Station Depth Elevation

Earthquake Activity

City Distance Mag. Time & Date
Minimum magnitude displayed is 2.5.

Coastal Water Temperatures

Place Temperature

Stations

Nearby Weather Stations

Station Location Temp. Windchill Dew Point Humidity Wind Precip. Elev Updated Type